createdAt,value
2022-12-06T00:01:31.442Z,75.54
2022-12-06T00:04:03.160Z,76.28
2022-12-06T00:06:33.795Z,76.00
2022-12-06T00:09:02.471Z,75.60
2022-12-06T00:11:32.497Z,75.71
2022-12-06T00:14:02.524Z,76.43
2022-12-06T00:16:31.373Z,76.56
2022-12-06T00:19:01.696Z,76.14
2022-12-06T00:21:31.393Z,76.45
2022-12-06T00:24:01.518Z,76.98
2022-12-06T00:26:30.535Z,76.77
2022-12-06T00:29:01.014Z,77.58
2022-12-06T00:31:31.257Z,77.42
2022-12-06T00:34:01.345Z,77.55
2022-12-06T00:36:31.325Z,76.85
2022-12-06T00:39:01.230Z,76.55
2022-12-06T00:41:29.770Z,76.97
2022-12-06T00:43:58.186Z,76.63
2022-12-06T00:46:29.134Z,76.99
2022-12-06T00:48:59.156Z,77.25
2022-12-06T00:51:30.521Z,77.63
2022-12-06T00:53:59.171Z,78.14
2022-12-06T00:56:28.189Z,77.34
2022-12-06T00:58:56.820Z,77.37
2022-12-06T01:01:26.902Z,77.37
2022-12-06T01:03:57.744Z,77.46
2022-12-06T01:06:29.798Z,78.07
2022-12-06T01:09:00.190Z,77.52
2022-12-06T01:11:29.789Z,78.05
2022-12-06T01:13:58.920Z,77.99
2022-12-06T01:16:29.585Z,77.97
2022-12-06T01:18:59.723Z,78.11
2022-12-06T01:21:31.049Z,78.12
2022-12-06T01:23:59.808Z,77.55
2022-12-06T01:26:33.012Z,77.51
2022-12-06T01:29:02.309Z,77.17
2022-12-06T01:31:37.537Z,77.16
2022-12-06T01:34:07.188Z,77.06
2022-12-06T01:36:36.951Z,77.37
2022-12-06T01:39:10.772Z,77.47
2022-12-06T01:41:39.848Z,77.71
2022-12-06T01:44:09.266Z,77.75
2022-12-06T01:46:41.222Z,76.75
2022-12-06T01:49:20.191Z,77.21
2022-12-06T01:51:52.862Z,77.55
2022-12-06T01:54:24.875Z,76.91
2022-12-06T01:56:55.295Z,77.23
2022-12-06T01:59:24.907Z,76.75
2022-12-06T02:01:53.927Z,77.30
2022-12-06T02:04:24.255Z,77.20
2022-12-06T02:06:56.703Z,77.16
2022-12-06T02:09:28.139Z,76.82
2022-12-06T02:11:56.433Z,77.10
2022-12-06T02:14:28.696Z,76.79
2022-12-06T02:17:10.913Z,77.00
2022-12-06T02:20:08.997Z,76.20
2022-12-06T02:23:10.173Z,76.98
2022-12-06T02:26:24.725Z,76.84
2022-12-06T02:29:25.416Z,76.87
2022-12-06T02:31:59.503Z,76.77
2022-12-06T02:34:35.390Z,76.55
2022-12-06T02:37:11.857Z,77.16
2022-12-06T02:39:46.452Z,77.12
2022-12-06T02:42:18.958Z,77.25
2022-12-06T02:44:51.231Z,76.92
2022-12-06T02:47:24.951Z,76.58
2022-12-06T02:49:55.084Z,77.05
2022-12-06T02:52:27.365Z,76.67
2022-12-06T02:54:58.649Z,76.09
2022-12-06T02:57:40.280Z,75.63
2022-12-06T03:00:31.330Z,75.78
2022-12-06T03:03:09.692Z,75.65
2022-12-06T03:05:41.325Z,75.52
2022-12-06T03:08:18.365Z,75.79
2022-12-06T03:10:54.741Z,75.74
2022-12-06T03:13:32.252Z,75.97
2022-12-06T03:16:08.247Z,75.80
2022-12-06T03:18:43.984Z,75.32
2022-12-06T03:21:15.682Z,75.74
2022-12-06T03:23:47.723Z,75.47
2022-12-06T03:26:21.507Z,74.86
2022-12-06T03:28:51.954Z,74.63
2022-12-06T03:31:22.861Z,74.63
2022-12-06T03:33:58.557Z,74.96
2022-12-06T03:36:28.306Z,75.12
2022-12-06T03:38:59.791Z,74.50
2022-12-06T03:41:33.672Z,74.66
2022-12-06T03:44:02.104Z,74.69
2022-12-06T03:46:35.333Z,74.47
2022-12-06T03:49:10.751Z,74.84
2022-12-06T03:51:40.971Z,74.78
2022-12-06T03:54:09.944Z,75.07
2022-12-06T03:56:39.666Z,74.82
2022-12-06T03:59:08.843Z,74.94
2022-12-06T04:01:37.597Z,74.38
2022-12-06T04:04:07.623Z,73.96
2022-12-06T04:06:36.005Z,74.17
2022-12-06T04:09:18.590Z,73.97
2022-12-06T04:11:47.121Z,74.12
2022-12-06T04:14:15.463Z,73.95
2022-12-06T04:17:01.186Z,73.47
2022-12-06T04:19:30.997Z,73.71
2022-12-06T04:22:16.968Z,73.88
2022-12-06T04:24:45.196Z,73.96
2022-12-06T04:27:31.116Z,74.17
2022-12-06T04:30:16.835Z,74.24
2022-12-06T04:33:02.447Z,74.60
2022-12-06T04:35:49.616Z,74.38
2022-12-06T04:38:35.417Z,74.54
2022-12-06T04:41:03.749Z,74.78
2022-12-06T04:43:45.819Z,74.73
2022-12-06T04:46:16.709Z,74.99
2022-12-06T04:48:45.085Z,74.85
2022-12-06T04:51:14.831Z,74.81
2022-12-06T04:53:43.175Z,74.78
2022-12-06T04:56:11.441Z,75.03
2022-12-06T04:58:39.879Z,74.98
2022-12-06T05:01:08.216Z,74.96
2022-12-06T05:03:42.425Z,75.11
2022-12-06T05:06:12.844Z,75.24
2022-12-06T05:08:42.493Z,75.20
2022-12-06T05:11:10.783Z,74.99
2022-12-06T05:13:39.045Z,75.15
2022-12-06T05:16:08.661Z,75.29
2022-12-06T05:18:37.012Z,75.38
2022-12-06T05:21:07.807Z,75.37
2022-12-06T05:23:37.128Z,75.54
2022-12-06T05:26:09.677Z,75.84
2022-12-06T05:28:38.158Z,75.48
2022-12-06T05:31:06.774Z,75.70
2022-12-06T05:33:35.166Z,75.68
2022-12-06T05:36:08.148Z,75.95
2022-12-06T05:38:36.549Z,75.67
2022-12-06T05:41:06.786Z,75.61
2022-12-06T05:43:35.424Z,75.68
2022-12-06T05:46:03.947Z,75.57
2022-12-06T05:48:32.546Z,75.52
2022-12-06T05:51:00.801Z,75.44
2022-12-06T05:53:29.648Z,75.22
2022-12-06T05:55:59.179Z,74.95
2022-12-06T05:58:28.910Z,74.76
2022-12-06T06:00:57.177Z,74.67
2022-12-06T06:03:25.778Z,74.87
2022-12-06T06:05:58.259Z,74.78
2022-12-06T06:08:26.778Z,74.97
2022-12-06T06:10:56.618Z,75.02
2022-12-06T06:13:25.404Z,75.07
2022-12-06T06:15:55.171Z,75.30
2022-12-06T06:18:24.139Z,75.20
2022-12-06T06:20:53.632Z,75.08
2022-12-06T06:23:22.618Z,74.79
2022-12-06T06:25:51.377Z,75.19
2022-12-06T06:28:20.295Z,75.15
2022-12-06T06:30:48.579Z,75.03
2022-12-06T06:33:18.560Z,75.30
2022-12-06T06:35:46.850Z,75.17
2022-12-06T06:38:16.085Z,75.52
2022-12-06T06:40:44.455Z,75.44
2022-12-06T06:43:21.765Z,75.16
2022-12-06T06:45:54.004Z,75.21
2022-12-06T06:48:25.047Z,75.10
2022-12-06T06:50:57.292Z,75.37
2022-12-06T06:53:27.685Z,75.33
2022-12-06T06:55:56.428Z,75.22
2022-12-06T06:58:25.200Z,75.26
2022-12-06T07:00:55.275Z,75.44
2022-12-06T07:03:25.524Z,75.69
2022-12-06T07:05:56.740Z,75.45
2022-12-06T07:08:25.397Z,75.21
2022-12-06T07:10:54.452Z,75.16
2022-12-06T07:13:24.654Z,74.81
2022-12-06T07:15:53.443Z,75.06
2022-12-06T07:18:22.094Z,75.13
2022-12-06T07:21:00.079Z,74.98
2022-12-06T07:23:28.555Z,75.47
2022-12-06T07:26:03.737Z,75.29
2022-12-06T07:28:32.126Z,75.20
2022-12-06T07:31:08.229Z,75.13
2022-12-06T07:33:36.723Z,75.20
2022-12-06T07:36:13.016Z,74.98
2022-12-06T07:38:42.389Z,75.06
2022-12-06T07:41:26.398Z,75.07
2022-12-06T07:44:13.550Z,75.24
2022-12-06T07:46:42.061Z,75.21
2022-12-06T07:49:10.641Z,74.99
2022-12-06T07:51:41.333Z,74.73
2022-12-06T07:54:10.103Z,75.16
2022-12-06T07:56:38.471Z,75.21
2022-12-06T07:59:07.248Z,75.19
2022-12-06T08:01:35.810Z,75.12
2022-12-06T08:04:05.592Z,75.18
2022-12-06T08:06:34.824Z,75.42
2022-12-06T08:09:06.790Z,74.81
2022-12-06T08:11:35.618Z,75.22
2022-12-06T08:14:04.121Z,74.66
2022-12-06T08:16:32.870Z,74.68
2022-12-06T08:19:01.203Z,75.33
2022-12-06T08:21:29.749Z,75.07
2022-12-06T08:23:58.055Z,74.80
2022-12-06T08:26:27.812Z,74.89
2022-12-06T08:28:56.168Z,74.68
2022-12-06T08:31:25.703Z,74.65
2022-12-06T08:33:53.981Z,74.96
2022-12-06T08:36:23.899Z,74.71
2022-12-06T08:38:53.377Z,73.55
2022-12-06T08:41:39.935Z,72.75
2022-12-06T08:44:13.201Z,71.52
2022-12-06T08:46:42.140Z,68.18
2022-12-06T08:49:12.658Z,67.34
2022-12-06T08:51:41.021Z,66.54
2022-12-06T08:54:13.734Z,66.66
2022-12-06T08:56:42.454Z,66.34
2022-12-06T08:59:12.122Z,65.94
2022-12-06T09:01:40.464Z,66.32
2022-12-06T09:04:10.541Z,66.35
2022-12-06T09:06:40.456Z,65.66
2022-12-06T09:09:10.099Z,65.77
2022-12-06T09:11:39.335Z,66.05
2022-12-06T09:14:09.300Z,65.23
2022-12-06T09:16:39.068Z,64.48
2022-12-06T09:19:07.276Z,64.81
2022-12-06T09:21:35.686Z,64.81
2022-12-06T09:24:03.936Z,64.83
2022-12-06T09:26:32.287Z,64.45
2022-12-06T09:29:00.656Z,64.72
2022-12-06T09:31:29.067Z,63.73
2022-12-06T09:33:58.859Z,63.44
2022-12-06T09:36:28.931Z,63.14
2022-12-06T09:39:01.913Z,63.50
2022-12-06T09:42:13.375Z,63.22
2022-12-06T09:45:00.326Z,63.56
2022-12-06T09:47:44.095Z,62.84
2022-12-06T09:50:25.348Z,61.86
2022-12-06T09:53:10.770Z,61.71
2022-12-06T09:56:00.495Z,60.97
2022-12-06T09:58:41.987Z,61.18
2022-12-06T10:01:21.266Z,60.92
2022-12-06T10:04:11.768Z,61.42
2022-12-06T10:06:50.451Z,62.12
2022-12-06T10:09:33.919Z,59.07
2022-12-06T10:12:16.705Z,59.54
2022-12-06T10:15:05.446Z,59.87
2022-12-06T10:17:52.128Z,60.40
2022-12-06T10:20:29.267Z,60.20
2022-12-06T10:23:12.869Z,60.05
2022-12-06T10:25:43.611Z,59.08
2022-12-06T10:28:14.665Z,58.84
2022-12-06T10:30:52.296Z,59.37
2022-12-06T10:33:25.764Z,58.85
2022-12-06T10:35:59.932Z,59.12
2022-12-06T10:38:36.514Z,59.90
2022-12-06T10:41:13.210Z,60.14
2022-12-06T10:43:51.371Z,59.19
2022-12-06T10:46:45.636Z,57.91
2022-12-06T10:49:22.664Z,58.80
2022-12-06T10:51:58.955Z,57.88
2022-12-06T10:54:36.411Z,58.30
2022-12-06T10:57:11.525Z,58.04
2022-12-06T10:59:49.155Z,57.17
2022-12-06T11:02:27.923Z,56.89
2022-12-06T11:05:01.861Z,57.21
2022-12-06T11:07:38.945Z,58.25
2022-12-06T11:10:21.656Z,57.09
2022-12-06T11:12:55.162Z,56.91
2022-12-06T11:15:28.957Z,56.87
2022-12-06T11:18:04.645Z,57.02
2022-12-06T11:20:39.459Z,54.90
2022-12-06T11:23:14.305Z,56.17
2022-12-06T11:26:00.350Z,54.86
2022-12-06T11:28:37.663Z,55.08
2022-12-06T11:31:17.213Z,55.26
2022-12-06T11:33:46.499Z,55.29
2022-12-06T11:36:15.791Z,55.30
2022-12-06T11:38:46.221Z,53.64
2022-12-06T11:41:24.624Z,53.40
2022-12-06T11:43:54.097Z,53.76
2022-12-06T11:46:23.526Z,54.35
2022-12-06T11:48:52.376Z,52.58
2022-12-06T11:51:22.555Z,52.78
2022-12-06T11:54:07.326Z,53.12
2022-12-06T11:56:39.640Z,52.82
2022-12-06T11:59:24.807Z,53.27
2022-12-06T12:01:54.889Z,54.59
2022-12-06T12:04:31.479Z,52.33
2022-12-06T12:07:02.389Z,53.00
2022-12-06T12:09:33.937Z,52.69
2022-12-06T12:12:07.203Z,53.78
2022-12-06T12:14:39.783Z,53.28
2022-12-06T12:17:18.951Z,53.22
2022-12-06T12:19:52.805Z,53.58
2022-12-06T12:22:30.500Z,52.41
2022-12-06T12:27:51.267Z,53.39
2022-12-06T12:30:31.512Z,54.02
2022-12-06T12:33:20.856Z,53.50
2022-12-06T12:35:51.685Z,54.13
2022-12-06T12:38:38.229Z,52.07
2022-12-06T12:41:20.776Z,52.14
2022-12-06T12:44:20.931Z,52.18
2022-12-06T12:46:52.582Z,52.25
2022-12-06T12:49:28.109Z,53.02
2022-12-06T12:51:57.189Z,52.99
2022-12-06T12:54:29.465Z,52.92
2022-12-06T12:56:58.843Z,53.43
2022-12-06T12:59:33.854Z,52.85
2022-12-06T13:02:06.881Z,53.86
2022-12-06T13:04:42.591Z,54.04
2022-12-06T13:07:21.098Z,54.49
2022-12-06T13:09:56.137Z,53.83
2022-12-06T13:12:31.046Z,53.67
2022-12-06T13:15:07.814Z,53.02
2022-12-06T13:17:38.995Z,53.37
2022-12-06T13:20:22.232Z,53.36
2022-12-06T13:22:54.319Z,54.06
2022-12-06T13:25:23.001Z,54.46
2022-12-06T13:27:54.164Z,54.58
2022-12-06T13:30:26.301Z,54.01
2022-12-06T13:32:57.969Z,54.17
2022-12-06T13:35:30.618Z,54.04
2022-12-06T13:38:01.717Z,54.43
2022-12-06T13:40:46.572Z,55.42
2022-12-06T13:43:50.849Z,55.81
2022-12-06T13:46:29.933Z,55.45
2022-12-06T13:48:59.776Z,56.10
2022-12-06T13:51:48.216Z,56.56
2022-12-06T13:54:37.497Z,56.51
2022-12-06T13:57:29.931Z,56.88
2022-12-06T13:59:58.778Z,57.93
2022-12-06T14:02:52.782Z,57.70
2022-12-06T14:08:33.146Z,58.17
2022-12-06T14:11:22.444Z,58.20
2022-12-06T14:14:01.432Z,58.49
2022-12-06T14:16:34.028Z,58.49
2022-12-06T14:19:14.477Z,58.46
2022-12-06T14:21:45.013Z,58.65
2022-12-06T14:24:31.951Z,58.88
2022-12-06T14:27:14.968Z,58.60
2022-12-06T14:29:44.797Z,58.68
2022-12-06T14:32:13.176Z,58.46
2022-12-06T14:34:42.831Z,58.30
2022-12-06T14:37:20.090Z,57.41
2022-12-06T14:39:53.353Z,57.24
2022-12-06T14:42:39.532Z,57.39
2022-12-06T14:45:14.683Z,57.77
2022-12-06T14:47:44.840Z,57.62
2022-12-06T14:50:26.805Z,57.79
2022-12-06T14:53:01.519Z,58.89
2022-12-06T14:55:32.026Z,58.73
2022-12-06T14:58:01.982Z,58.82
2022-12-06T15:00:37.243Z,59.11
2022-12-06T15:03:24.092Z,59.41
2022-12-06T15:06:11.702Z,60.29
2022-12-06T15:08:41.791Z,60.67
2022-12-06T15:11:43.948Z,60.75
2022-12-06T15:14:14.223Z,61.73
2022-12-06T15:16:43.908Z,62.72
2022-12-06T15:19:14.576Z,62.35
2022-12-06T15:21:46.110Z,62.78
2022-12-06T15:24:19.295Z,63.56
2022-12-06T15:26:47.919Z,63.49
2022-12-06T15:29:16.527Z,64.15
2022-12-06T15:31:47.712Z,64.06
2022-12-06T15:34:28.049Z,64.57
2022-12-06T15:37:30.205Z,65.33
2022-12-06T15:39:48.471Z,64.38
2022-12-06T15:42:21.268Z,65.28
2022-12-06T15:44:50.915Z,65.20
2022-12-06T15:47:20.676Z,66.11
2022-12-06T15:49:51.029Z,65.83
2022-12-06T15:52:23.686Z,65.83
2022-12-06T15:54:52.276Z,66.58
2022-12-06T15:57:20.516Z,66.61
2022-12-06T15:59:48.753Z,66.11
2022-12-06T16:02:18.995Z,66.96
2022-12-06T16:04:48.569Z,67.11
2022-12-06T16:07:19.294Z,66.66
2022-12-06T16:09:50.559Z,66.97
2022-12-06T16:12:18.922Z,67.12
2022-12-06T16:14:47.120Z,67.57
2022-12-06T16:17:15.431Z,68.09
2022-12-06T16:20:00.910Z,68.02
2022-12-06T16:22:43.037Z,67.96
2022-12-06T16:25:12.789Z,67.31
2022-12-06T16:27:41.160Z,68.14
2022-12-06T16:30:10.937Z,67.92
2022-12-06T16:32:39.138Z,67.73
2022-12-06T16:35:08.877Z,68.31
2022-12-06T16:37:37.116Z,68.30
2022-12-06T16:40:06.468Z,68.39
2022-12-06T16:42:36.770Z,68.46
2022-12-06T16:45:05.587Z,68.89
2022-12-06T16:47:34.415Z,69.43
2022-12-06T16:50:02.774Z,69.92
2022-12-06T16:52:31.100Z,70.42
2022-12-06T16:54:59.846Z,70.38
2022-12-06T16:57:28.491Z,70.46
2022-12-06T16:59:58.114Z,70.33
2022-12-06T17:02:28.809Z,70.55
2022-12-06T17:04:59.113Z,70.64
2022-12-06T17:07:27.859Z,70.00
2022-12-06T17:09:56.727Z,70.14
2022-12-06T17:12:25.352Z,69.87
2022-12-06T17:14:54.661Z,69.60
2022-12-06T17:17:26.431Z,69.86
2022-12-06T17:19:56.289Z,69.83
2022-12-06T17:22:24.714Z,69.88
2022-12-06T17:24:53.071Z,69.88
2022-12-06T17:27:21.442Z,69.95
2022-12-06T17:29:49.788Z,70.50
2022-12-06T17:32:22.856Z,70.37
2022-12-06T17:35:03.864Z,70.31
2022-12-06T17:37:33.840Z,70.54
2022-12-06T17:40:02.124Z,70.12
2022-12-06T17:42:48.011Z,70.73
2022-12-06T17:45:19.557Z,70.89
2022-12-06T17:47:50.380Z,69.77
2022-12-06T17:50:20.161Z,70.25
2022-12-06T17:52:48.568Z,70.44
2022-12-06T17:55:16.906Z,70.11
2022-12-06T17:57:45.150Z,70.96
2022-12-06T18:00:14.255Z,70.60
2022-12-06T18:02:42.772Z,71.17
2022-12-06T18:05:11.336Z,70.46
2022-12-06T18:07:41.168Z,71.05
2022-12-06T18:10:10.525Z,71.34
2022-12-06T18:12:38.818Z,70.66
2022-12-06T18:15:28.281Z,71.25
2022-12-06T18:17:56.530Z,71.84
2022-12-06T18:20:24.755Z,71.70
2022-12-06T18:22:54.590Z,71.43
2022-12-06T18:25:23.315Z,71.93
2022-12-06T18:27:51.593Z,71.69
2022-12-06T18:30:20.064Z,71.75
2022-12-06T18:32:51.452Z,72.11
2022-12-06T18:35:19.887Z,72.02
2022-12-06T18:37:48.258Z,72.40
2022-12-06T18:40:18.176Z,72.29
2022-12-06T18:42:46.782Z,72.84
2022-12-06T18:45:15.105Z,72.15
2022-12-06T18:47:43.374Z,72.45
2022-12-06T18:50:11.773Z,72.60
2022-12-06T18:52:39.930Z,72.54
2022-12-06T18:55:09.982Z,72.89
2022-12-06T18:57:40.282Z,72.71
2022-12-06T19:00:09.858Z,72.00
2022-12-06T19:02:38.297Z,71.98
2022-12-06T19:05:07.418Z,72.06
2022-12-06T19:07:36.179Z,72.21
2022-12-06T19:10:04.959Z,72.54
2022-12-06T19:12:33.923Z,72.66
2022-12-06T19:15:03.686Z,72.05
2022-12-06T19:17:31.942Z,72.46
2022-12-06T19:20:00.464Z,72.20
2022-12-06T19:22:28.979Z,72.62
2022-12-06T19:24:57.270Z,72.40
2022-12-06T19:27:25.519Z,71.73
2022-12-06T19:29:54.116Z,72.27
2022-12-06T19:32:23.820Z,71.89
2022-12-06T19:34:52.440Z,72.62
2022-12-06T19:37:20.762Z,71.59
2022-12-06T19:39:49.088Z,72.69
2022-12-06T19:42:35.276Z,72.51
2022-12-06T19:45:03.569Z,72.23
2022-12-06T19:47:33.711Z,72.62
2022-12-06T19:50:02.605Z,72.51
2022-12-06T19:52:31.524Z,72.91
2022-12-06T19:54:59.877Z,71.88
2022-12-06T19:57:28.261Z,72.97
2022-12-06T19:59:56.571Z,73.05
2022-12-06T20:02:25.913Z,73.19
2022-12-06T20:04:55.726Z,73.28
2022-12-06T20:07:24.062Z,72.54
2022-12-06T20:09:52.750Z,72.91
2022-12-06T20:12:21.016Z,73.24
2022-12-06T20:14:50.827Z,72.32
2022-12-06T20:17:21.991Z,72.32
2022-12-06T20:19:50.719Z,72.55
2022-12-06T20:22:22.773Z,73.29
2022-12-06T20:24:52.132Z,73.53
2022-12-06T20:27:41.106Z,72.29
2022-12-06T20:30:10.803Z,73.34
2022-12-06T20:32:39.152Z,73.45
2022-12-06T20:35:07.784Z,73.79
2022-12-06T20:37:38.019Z,73.44
2022-12-06T20:40:07.636Z,73.56
2022-12-06T20:42:36.591Z,72.67
2022-12-06T20:45:05.445Z,73.07
2022-12-06T20:47:34.224Z,73.53
2022-12-06T20:50:02.960Z,73.06
2022-12-06T20:52:31.789Z,72.57
2022-12-06T20:55:01.582Z,73.09
2022-12-06T20:57:29.850Z,72.70
2022-12-06T21:00:02.161Z,72.73
2022-12-06T21:02:36.063Z,71.85
2022-12-06T21:05:04.834Z,72.06
2022-12-06T21:07:34.021Z,72.67
2022-12-06T21:10:04.298Z,72.32
2022-12-06T21:12:32.749Z,71.65
2022-12-06T21:15:01.068Z,71.79
2022-12-06T21:17:29.468Z,72.02
2022-12-06T21:19:57.707Z,72.22
2022-12-06T21:22:26.069Z,72.21
2022-12-06T21:24:56.662Z,71.72
2022-12-06T21:27:27.583Z,71.99
2022-12-06T21:29:56.414Z,72.07
2022-12-06T21:32:25.868Z,72.57
2022-12-06T21:34:54.284Z,72.18
2022-12-06T21:37:22.489Z,72.73
2022-12-06T21:39:50.862Z,71.87
2022-12-06T21:42:21.251Z,72.15
2022-12-06T21:44:51.006Z,73.02
2022-12-06T21:47:19.317Z,72.88
2022-12-06T21:49:47.678Z,72.46
2022-12-06T21:52:15.912Z,72.29
2022-12-06T21:54:44.175Z,71.94
2022-12-06T21:57:13.520Z,72.27
2022-12-06T21:59:41.739Z,72.86
2022-12-06T22:02:12.225Z,72.71
2022-12-06T22:04:40.692Z,72.40
2022-12-06T22:07:08.998Z,72.13
2022-12-06T22:09:37.346Z,72.24
2022-12-06T22:12:06.271Z,71.96
2022-12-06T22:14:34.569Z,71.93
2022-12-06T22:17:02.832Z,72.16
2022-12-06T22:19:32.562Z,71.66
2022-12-06T22:22:00.890Z,71.78
2022-12-06T22:24:29.208Z,72.10
2022-12-06T22:26:57.588Z,72.26
2022-12-06T22:29:25.942Z,71.91
2022-12-06T22:31:54.688Z,72.12
2022-12-06T22:34:23.033Z,71.87
2022-12-06T22:36:52.701Z,71.95
2022-12-06T22:39:21.091Z,71.72
2022-12-06T22:41:49.348Z,72.24
2022-12-06T22:44:18.207Z,72.23
2022-12-06T22:46:46.489Z,72.56
2022-12-06T22:49:17.968Z,71.98
2022-12-06T22:51:46.981Z,72.17
2022-12-06T22:54:16.820Z,72.05
2022-12-06T22:56:48.829Z,72.22
2022-12-06T22:59:18.108Z,72.41
2022-12-06T23:01:46.439Z,72.64
2022-12-06T23:04:14.820Z,72.64
2022-12-06T23:06:43.201Z,72.98
2022-12-06T23:09:17.401Z,73.34
2022-12-06T23:11:46.953Z,73.11
2022-12-06T23:14:15.278Z,72.57
2022-12-06T23:16:45.218Z,72.67
2022-12-06T23:19:13.513Z,72.73
2022-12-06T23:21:42.638Z,72.79
2022-12-06T23:24:13.119Z,73.21
2022-12-06T23:26:44.664Z,73.66
2022-12-06T23:29:13.254Z,73.56
2022-12-06T23:31:43.682Z,73.21
2022-12-06T23:34:14.790Z,72.90
2022-12-06T23:36:43.627Z,73.17
2022-12-06T23:39:12.259Z,72.83
2022-12-06T23:41:42.470Z,73.17
2022-12-06T23:44:13.240Z,73.10
2022-12-06T23:46:43.418Z,73.22
2022-12-06T23:49:17.504Z,73.19
2022-12-06T23:51:46.974Z,73.26
2022-12-06T23:54:16.721Z,72.79
2022-12-06T23:56:46.965Z,72.73
2022-12-06T23:59:16.915Z,72.57
